sensor_id;sensor_type;location;lat;lon;timestamp;temperature;humidity
18797;DHT22;9526;52.612;13.300;2024-02-14T00:01:24;1.80;99.90
18797;DHT22;9526;52.612;13.300;2024-02-14T00:03:48;1.70;99.90
18797;DHT22;9526;52.612;13.300;2024-02-14T00:06:12;1.70;99.90
18797;DHT22;9526;52.612;13.300;2024-02-14T00:08:37;1.70;99.90
18797;DHT22;9526;52.612;13.300;2024-02-14T00:11:01;1.70;99.90
18797;DHT22;9526;52.612;13.300;2024-02-14T00:13:25;1.70;99.90
18797;DHT22;9526;52.612;13.300;2024-02-14T00:15:49;1.70;99.90
18797;DHT22;9526;52.612;13.300;2024-02-14T00:18:13;1.60;99.90
18797;DHT22;9526;52.612;13.300;2024-02-14T00:20:38;1.60;99.90
18797;DHT22;9526;52.612;13.300;2024-02-14T00:23:02;1.60;99.90
18797;DHT22;9526;52.612;13.300;2024-02-14T00:25:27;1.60;99.90
18797;DHT22;9526;52.612;13.300;2024-02-14T00:27:52;1.50;99.90
18797;DHT22;9526;52.612;13.300;2024-02-14T00:30:18;1.50;99.90
18797;DHT22;9526;52.612;13.300;2024-02-14T00:32:41;1.50;99.90
18797;DHT22;9526;52.612;13.300;2024-02-14T00:35:06;1.50;99.90
18797;DHT22;9526;52.612;13.300;2024-02-14T00:37:31;1.50;99.90
18797;DHT22;9526;52.612;13.300;2024-02-14T00:39:55;1.50;99.90
18797;DHT22;9526;52.612;13.300;2024-02-14T00:42:21;1.40;99.90
18797;DHT22;9526;52.612;13.300;2024-02-14T00:44:45;1.50;99.90
18797;DHT22;9526;52.612;13.300;2024-02-14T00:47:09;1.40;99.90
18797;DHT22;9526;52.612;13.300;2024-02-14T00:49:34;1.40;99.90
18797;DHT22;9526;52.612;13.300;2024-02-14T00:51:58;1.40;99.90
18797;DHT22;9526;52.612;13.300;2024-02-14T00:54:22;1.50;99.90
18797;DHT22;9526;52.612;13.300;2024-02-14T00:56:46;1.50;99.90
18797;DHT22;9526;52.612;13.300;2024-02-14T00:59:11;1.40;99.90
18797;DHT22;9526;52.612;13.300;2024-02-14T01:01:35;1.50;99.90
18797;DHT22;9526;52.612;13.300;2024-02-14T01:03:58;1.50;99.90
18797;DHT22;9526;52.612;13.300;2024-02-14T01:06:22;1.40;99.90
18797;DHT22;9526;52.612;13.300;2024-02-14T01:08:46;1.50;99.90
18797;DHT22;9526;52.612;13.300;2024-02-14T01:11:10;1.50;99.90
18797;DHT22;9526;52.612;13.300;2024-02-14T01:13:34;1.50;99.90
18797;DHT22;9526;52.612;13.300;2024-02-14T01:15:59;1.50;99.90
18797;DHT22;9526;52.612;13.300;2024-02-14T01:18:23;1.50;99.90
18797;DHT22;9526;52.612;13.300;2024-02-14T01:20:47;1.50;99.90
18797;DHT22;9526;52.612;13.300;2024-02-14T01:23:11;1.50;99.90
18797;DHT22;9526;52.612;13.300;2024-02-14T01:25:35;1.50;99.90
18797;DHT22;9526;52.612;13.300;2024-02-14T01:27:59;1.50;99.90
18797;DHT22;9526;52.612;13.300;2024-02-14T01:30:23;1.60;99.90
18797;DHT22;9526;52.612;13.300;2024-02-14T01:32:48;1.50;99.90
18797;DHT22;9526;52.612;13.300;2024-02-14T01:35:12;1.60;99.90
18797;DHT22;9526;52.612;13.300;2024-02-14T01:37:36;1.50;99.90
18797;DHT22;9526;52.612;13.300;2024-02-14T01:40:00;1.50;99.90
18797;DHT22;9526;52.612;13.300;2024-02-14T01:42:23;1.50;99.90
18797;DHT22;9526;52.612;13.300;2024-02-14T01:44:47;1.50;99.90
18797;DHT22;9526;52.612;13.300;2024-02-14T01:47:11;1.50;99.90
18797;DHT22;9526;52.612;13.300;2024-02-14T01:49:37;1.50;99.90
18797;DHT22;9526;52.612;13.300;2024-02-14T01:52:03;1.50;99.90
18797;DHT22;9526;52.612;13.300;2024-02-14T01:54:27;1.60;99.90
18797;DHT22;9526;52.612;13.300;2024-02-14T01:56:52;1.60;99.90
18797;DHT22;9526;52.612;13.300;2024-02-14T01:59:15;1.60;99.90
18797;DHT22;9526;52.612;13.300;2024-02-14T02:01:40;1.60;99.90
18797;DHT22;9526;52.612;13.300;2024-02-14T02:04:04;1.60;99.90
18797;DHT22;9526;52.612;13.300;2024-02-14T02:06:30;1.60;99.90
18797;DHT22;9526;52.612;13.300;2024-02-14T02:08:54;1.70;99.90
18797;DHT22;9526;52.612;13.300;2024-02-14T02:11:18;1.70;99.90
18797;DHT22;9526;52.612;13.300;2024-02-14T02:13:42;1.70;99.90
18797;DHT22;9526;52.612;13.300;2024-02-14T02:16:06;1.70;99.90
18797;DHT22;9526;52.612;13.300;2024-02-14T02:18:30;1.70;99.90
18797;DHT22;9526;52.612;13.300;2024-02-14T02:20:54;1.70;99.90
18797;DHT22;9526;52.612;13.300;2024-02-14T02:23:19;1.80;99.90
18797;DHT22;9526;52.612;13.300;2024-02-14T02:25:43;1.80;99.90
18797;DHT22;9526;52.612;13.300;2024-02-14T02:28:07;1.70;99.90
18797;DHT22;9526;52.612;13.300;2024-02-14T02:30:32;1.70;99.90
18797;DHT22;9526;52.612;13.300;2024-02-14T02:32:57;1.80;99.90
18797;DHT22;9526;52.612;13.300;2024-02-14T02:35:22;1.80;99.90
18797;DHT22;9526;52.612;13.300;2024-02-14T02:37:46;1.80;99.90
18797;DHT22;9526;52.612;13.300;2024-02-14T02:40:14;1.70;99.90
18797;DHT22;9526;52.612;13.300;2024-02-14T02:42:39;1.70;99.90
18797;DHT22;9526;52.612;13.300;2024-02-14T02:45:03;1.80;99.90
18797;DHT22;9526;52.612;13.300;2024-02-14T02:47:28;1.80;99.90
18797;DHT22;9526;52.612;13.300;2024-02-14T02:49:52;1.80;99.90
18797;DHT22;9526;52.612;13.300;2024-02-14T02:52:15;1.80;99.90
18797;DHT22;9526;52.612;13.300;2024-02-14T02:54:39;1.80;99.90
18797;DHT22;9526;52.612;13.300;2024-02-14T02:57:07;1.80;99.90
18797;DHT22;9526;52.612;13.300;2024-02-14T02:59:32;1.80;99.90
18797;DHT22;9526;52.612;13.300;2024-02-14T03:01:56;1.90;99.90
18797;DHT22;9526;52.612;13.300;2024-02-14T03:04:20;1.90;99.90
18797;DHT22;9526;52.612;13.300;2024-02-14T03:06:58;1.90;99.90
18797;DHT22;9526;52.612;13.300;2024-02-14T03:09:22;1.90;99.90
18797;DHT22;9526;52.612;13.300;2024-02-14T03:11:48;2.00;99.90
18797;DHT22;9526;52.612;13.300;2024-02-14T03:14:14;1.90;99.90
18797;DHT22;9526;52.612;13.300;2024-02-14T03:16:37;2.00;99.90
18797;DHT22;9526;52.612;13.300;2024-02-14T03:19:01;2.00;99.90
18797;DHT22;9526;52.612;13.300;2024-02-14T03:21:25;2.00;99.90
18797;DHT22;9526;52.612;13.300;2024-02-14T03:23:50;2.10;99.90
18797;DHT22;9526;52.612;13.300;2024-02-14T03:26:16;2.10;99.90
18797;DHT22;9526;52.612;13.300;2024-02-14T03:28:40;2.10;99.90
18797;DHT22;9526;52.612;13.300;2024-02-14T03:31:05;2.10;99.90
18797;DHT22;9526;52.612;13.300;2024-02-14T03:33:29;2.10;99.90
18797;DHT22;9526;52.612;13.300;2024-02-14T03:35:53;2.20;99.90
18797;DHT22;9526;52.612;13.300;2024-02-14T03:38:25;2.20;99.90
18797;DHT22;9526;52.612;13.300;2024-02-14T03:40:49;2.20;99.90
18797;DHT22;9526;52.612;13.300;2024-02-14T03:43:13;2.30;99.90
18797;DHT22;9526;52.612;13.300;2024-02-14T03:45:36;2.30;99.90
18797;DHT22;9526;52.612;13.300;2024-02-14T03:48:01;2.30;99.90
18797;DHT22;9526;52.612;13.300;2024-02-14T03:50:27;2.40;99.90
18797;DHT22;9526;52.612;13.300;2024-02-14T03:52:51;2.40;99.90
18797;DHT22;9526;52.612;13.300;2024-02-14T03:55:15;2.40;99.90
18797;DHT22;9526;52.612;13.300;2024-02-14T03:57:41;2.40;99.90
18797;DHT22;9526;52.612;13.300;2024-02-14T04:00:08;2.50;99.90
18797;DHT22;9526;52.612;13.300;2024-02-14T04:02:34;2.50;99.90
18797;DHT22;9526;52.612;13.300;2024-02-14T04:05:03;2.50;99.90
18797;DHT22;9526;52.612;13.300;2024-02-14T04:07:29;2.60;99.90
18797;DHT22;9526;52.612;13.300;2024-02-14T04:09:53;2.60;99.90
18797;DHT22;9526;52.612;13.300;2024-02-14T04:12:17;2.60;99.90
18797;DHT22;9526;52.612;13.300;2024-02-14T04:14:41;2.60;99.90
18797;DHT22;9526;52.612;13.300;2024-02-14T04:17:05;2.70;99.90
18797;DHT22;9526;52.612;13.300;2024-02-14T04:19:30;2.70;99.90
18797;DHT22;9526;52.612;13.300;2024-02-14T04:21:56;2.80;99.90
18797;DHT22;9526;52.612;13.300;2024-02-14T04:24:20;2.80;99.90
18797;DHT22;9526;52.612;13.300;2024-02-14T04:26:43;2.80;99.90
18797;DHT22;9526;52.612;13.300;2024-02-14T04:29:08;2.90;99.90
18797;DHT22;9526;52.612;13.300;2024-02-14T04:31:31;2.90;99.90
18797;DHT22;9526;52.612;13.300;2024-02-14T04:33:55;3.00;99.90
18797;DHT22;9526;52.612;13.300;2024-02-14T04:36:19;3.10;99.90
18797;DHT22;9526;52.612;13.300;2024-02-14T04:38:47;3.10;99.90
18797;DHT22;9526;52.612;13.300;2024-02-14T04:41:11;3.20;99.90
18797;DHT22;9526;52.612;13.300;2024-02-14T04:43:34;3.30;99.90
18797;DHT22;9526;52.612;13.300;2024-02-14T04:45:58;3.30;99.90
18797;DHT22;9526;52.612;13.300;2024-02-14T04:48:22;3.40;99.90
18797;DHT22;9526;52.612;13.300;2024-02-14T04:50:47;3.40;99.90
18797;DHT22;9526;52.612;13.300;2024-02-14T04:53:10;3.50;99.90
18797;DHT22;9526;52.612;13.300;2024-02-14T04:55:35;3.50;99.90
18797;DHT22;9526;52.612;13.300;2024-02-14T04:57:59;3.60;99.90
18797;DHT22;9526;52.612;13.300;2024-02-14T05:00:23;3.60;99.90
18797;DHT22;9526;52.612;13.300;2024-02-14T05:02:46;3.60;99.90
18797;DHT22;9526;52.612;13.300;2024-02-14T05:05:11;3.60;99.90
18797;DHT22;9526;52.612;13.300;2024-02-14T05:07:35;3.60;99.90
18797;DHT22;9526;52.612;13.300;2024-02-14T05:09:59;3.70;99.90
18797;DHT22;9526;52.612;13.300;2024-02-14T05:12:24;3.70;99.90
18797;DHT22;9526;52.612;13.300;2024-02-14T05:14:47;3.80;99.90
18797;DHT22;9526;52.612;13.300;2024-02-14T05:17:11;3.80;99.90
18797;DHT22;9526;52.612;13.300;2024-02-14T05:19:35;3.80;99.90
18797;DHT22;9526;52.612;13.300;2024-02-14T05:21:59;4.00;99.90
18797;DHT22;9526;52.612;13.300;2024-02-14T05:24:22;3.90;99.90
18797;DHT22;9526;52.612;13.300;2024-02-14T05:26:49;3.90;99.90
18797;DHT22;9526;52.612;13.300;2024-02-14T05:29:15;4.00;99.90
18797;DHT22;9526;52.612;13.300;2024-02-14T05:31:44;4.00;99.90
18797;DHT22;9526;52.612;13.300;2024-02-14T05:34:10;4.00;99.90
18797;DHT22;9526;52.612;13.300;2024-02-14T05:36:34;4.10;99.90
18797;DHT22;9526;52.612;13.300;2024-02-14T05:38:58;4.10;99.90
18797;DHT22;9526;52.612;13.300;2024-02-14T05:41:22;4.10;99.90
18797;DHT22;9526;52.612;13.300;2024-02-14T05:43:47;4.10;99.90
18797;DHT22;9526;52.612;13.300;2024-02-14T05:46:12;4.10;99.90
18797;DHT22;9526;52.612;13.300;2024-02-14T05:48:36;4.10;99.90
18797;DHT22;9526;52.612;13.300;2024-02-14T05:51:04;4.20;99.90
18797;DHT22;9526;52.612;13.300;2024-02-14T05:53:28;4.20;99.90
18797;DHT22;9526;52.612;13.300;2024-02-14T05:55:51;4.20;99.90
18797;DHT22;9526;52.612;13.300;2024-02-14T05:58:15;4.30;99.90
18797;DHT22;9526;52.612;13.300;2024-02-14T06:00:39;4.30;99.90
18797;DHT22;9526;52.612;13.300;2024-02-14T06:03:05;4.30;99.90
18797;DHT22;9526;52.612;13.300;2024-02-14T06:05:29;4.30;99.90
18797;DHT22;9526;52.612;13.300;2024-02-14T06:07:53;4.30;99.90
18797;DHT22;9526;52.612;13.300;2024-02-14T06:10:18;4.40;99.90
18797;DHT22;9526;52.612;13.300;2024-02-14T06:12:41;4.40;99.90
18797;DHT22;9526;52.612;13.300;2024-02-14T06:15:07;4.40;99.90
18797;DHT22;9526;52.612;13.300;2024-02-14T06:17:30;4.40;99.90
18797;DHT22;9526;52.612;13.300;2024-02-14T06:19:55;4.50;99.90
18797;DHT22;9526;52.612;13.300;2024-02-14T06:22:19;4.50;99.90
18797;DHT22;9526;52.612;13.300;2024-02-14T06:24:43;4.50;99.90
18797;DHT22;9526;52.612;13.300;2024-02-14T06:27:18;4.60;99.90
18797;DHT22;9526;52.612;13.300;2024-02-14T06:29:42;4.60;99.90
18797;DHT22;9526;52.612;13.300;2024-02-14T06:32:06;4.60;99.90
18797;DHT22;9526;52.612;13.300;2024-02-14T06:34:30;4.60;99.90
18797;DHT22;9526;52.612;13.300;2024-02-14T06:36:56;4.60;99.90
18797;DHT22;9526;52.612;13.300;2024-02-14T06:39:19;4.70;99.90
18797;DHT22;9526;52.612;13.300;2024-02-14T06:41:43;4.70;99.90
18797;DHT22;9526;52.612;13.300;2024-02-14T06:44:09;4.70;99.90
18797;DHT22;9526;52.612;13.300;2024-02-14T06:46:32;4.70;99.90
18797;DHT22;9526;52.612;13.300;2024-02-14T06:48:57;4.70;99.90
18797;DHT22;9526;52.612;13.300;2024-02-14T06:51:21;4.70;99.90
18797;DHT22;9526;52.612;13.300;2024-02-14T06:53:47;4.70;99.90
18797;DHT22;9526;52.612;13.300;2024-02-14T06:56:13;4.80;99.90
18797;DHT22;9526;52.612;13.300;2024-02-14T06:58:36;4.80;99.90
18797;DHT22;9526;52.612;13.300;2024-02-14T07:01:00;4.80;99.90
18797;DHT22;9526;52.612;13.300;2024-02-14T07:03:25;4.80;99.90
18797;DHT22;9526;52.612;13.300;2024-02-14T07:05:49;4.80;99.90
18797;DHT22;9526;52.612;13.300;2024-02-14T07:08:13;4.80;99.90
18797;DHT22;9526;52.612;13.300;2024-02-14T07:10:39;4.90;99.90
18797;DHT22;9526;52.612;13.300;2024-02-14T07:13:03;4.90;99.90
18797;DHT22;9526;52.612;13.300;2024-02-14T07:15:27;4.90;99.90
18797;DHT22;9526;52.612;13.300;2024-02-14T07:17:51;5.00;99.90
18797;DHT22;9526;52.612;13.300;2024-02-14T07:20:15;5.00;99.90
18797;DHT22;9526;52.612;13.300;2024-02-14T07:22:40;5.00;99.90
18797;DHT22;9526;52.612;13.300;2024-02-14T07:25:04;5.10;99.90
18797;DHT22;9526;52.612;13.300;2024-02-14T07:27:31;5.10;99.90
18797;DHT22;9526;52.612;13.300;2024-02-14T07:29:55;5.20;99.90
18797;DHT22;9526;52.612;13.300;2024-02-14T07:32:19;5.20;99.90
18797;DHT22;9526;52.612;13.300;2024-02-14T07:34:44;5.20;99.90
18797;DHT22;9526;52.612;13.300;2024-02-14T07:37:08;5.30;99.90
18797;DHT22;9526;52.612;13.300;2024-02-14T07:39:32;5.30;99.90
18797;DHT22;9526;52.612;13.300;2024-02-14T07:41:57;5.30;99.90
18797;DHT22;9526;52.612;13.300;2024-02-14T07:44:22;5.40;99.90
18797;DHT22;9526;52.612;13.300;2024-02-14T07:46:46;5.40;99.90
18797;DHT22;9526;52.612;13.300;2024-02-14T07:49:10;5.40;99.90
18797;DHT22;9526;52.612;13.300;2024-02-14T07:51:34;5.50;99.90
18797;DHT22;9526;52.612;13.300;2024-02-14T07:53:59;5.50;99.90
18797;DHT22;9526;52.612;13.300;2024-02-14T07:56:23;5.50;99.90
18797;DHT22;9526;52.612;13.300;2024-02-14T07:58:47;5.60;99.90
18797;DHT22;9526;52.612;13.300;2024-02-14T08:01:13;5.70;99.90
18797;DHT22;9526;52.612;13.300;2024-02-14T08:03:37;5.70;99.90
18797;DHT22;9526;52.612;13.300;2024-02-14T08:06:00;5.70;99.90
18797;DHT22;9526;52.612;13.300;2024-02-14T08:08:25;5.70;99.90
18797;DHT22;9526;52.612;13.300;2024-02-14T08:10:49;5.80;99.90
18797;DHT22;9526;52.612;13.300;2024-02-14T08:13:13;5.80;99.90
18797;DHT22;9526;52.612;13.300;2024-02-14T08:15:39;5.80;99.90
18797;DHT22;9526;52.612;13.300;2024-02-14T08:18:04;5.90;99.90
18797;DHT22;9526;52.612;13.300;2024-02-14T08:20:31;5.90;99.90
18797;DHT22;9526;52.612;13.300;2024-02-14T08:22:56;5.90;99.90
18797;DHT22;9526;52.612;13.300;2024-02-14T08:25:19;6.00;99.90
18797;DHT22;9526;52.612;13.300;2024-02-14T08:27:43;6.00;99.90
18797;DHT22;9526;52.612;13.300;2024-02-14T08:30:08;6.10;99.90
18797;DHT22;9526;52.612;13.300;2024-02-14T08:32:35;6.20;99.90
18797;DHT22;9526;52.612;13.300;2024-02-14T08:35:00;6.20;99.90
18797;DHT22;9526;52.612;13.300;2024-02-14T08:37:24;6.30;99.90
18797;DHT22;9526;52.612;13.300;2024-02-14T08:39:48;6.30;99.90
18797;DHT22;9526;52.612;13.300;2024-02-14T08:42:11;6.40;99.90
18797;DHT22;9526;52.612;13.300;2024-02-14T08:44:35;6.40;99.90
18797;DHT22;9526;52.612;13.300;2024-02-14T08:47:00;6.50;99.90
18797;DHT22;9526;52.612;13.300;2024-02-14T08:49:24;6.60;99.90
18797;DHT22;9526;52.612;13.300;2024-02-14T08:51:49;6.60;99.90
18797;DHT22;9526;52.612;13.300;2024-02-14T08:54:13;6.60;99.90
18797;DHT22;9526;52.612;13.300;2024-02-14T08:56:38;6.70;99.90
18797;DHT22;9526;52.612;13.300;2024-02-14T08:59:02;6.80;99.90
18797;DHT22;9526;52.612;13.300;2024-02-14T09:01:29;6.80;99.90
18797;DHT22;9526;52.612;13.300;2024-02-14T09:03:52;6.90;99.90
18797;DHT22;9526;52.612;13.300;2024-02-14T09:06:17;7.00;99.90
18797;DHT22;9526;52.612;13.300;2024-02-14T09:08:43;7.00;99.90
18797;DHT22;9526;52.612;13.300;2024-02-14T09:11:08;6.90;99.90
18797;DHT22;9526;52.612;13.300;2024-02-14T09:13:31;7.00;99.90
18797;DHT22;9526;52.612;13.300;2024-02-14T09:15:56;7.00;99.90
18797;DHT22;9526;52.612;13.300;2024-02-14T09:18:19;7.00;99.90
18797;DHT22;9526;52.612;13.300;2024-02-14T09:20:43;6.90;99.90
18797;DHT22;9526;52.612;13.300;2024-02-14T09:23:08;7.00;99.90
18797;DHT22;9526;52.612;13.300;2024-02-14T09:25:33;7.00;99.90
18797;DHT22;9526;52.612;13.300;2024-02-14T09:27:57;6.90;99.90
18797;DHT22;9526;52.612;13.300;2024-02-14T09:30:21;7.00;99.90
18797;DHT22;9526;52.612;13.300;2024-02-14T09:32:59;6.90;99.90
18797;DHT22;9526;52.612;13.300;2024-02-14T09:35:23;7.00;99.90
18797;DHT22;9526;52.612;13.300;2024-02-14T09:37:48;7.00;99.90
18797;DHT22;9526;52.612;13.300;2024-02-14T09:40:12;7.00;99.90
18797;DHT22;9526;52.612;13.300;2024-02-14T09:42:43;7.00;99.90
18797;DHT22;9526;52.612;13.300;2024-02-14T09:45:08;7.00;99.90
18797;DHT22;9526;52.612;13.300;2024-02-14T09:47:41;7.00;99.90
18797;DHT22;9526;52.612;13.300;2024-02-14T09:50:06;7.00;99.90
18797;DHT22;9526;52.612;13.300;2024-02-14T09:52:32;7.00;99.90
18797;DHT22;9526;52.612;13.300;2024-02-14T09:54:56;7.10;99.90
18797;DHT22;9526;52.612;13.300;2024-02-14T09:57:20;7.10;99.90
18797;DHT22;9526;52.612;13.300;2024-02-14T09:59:47;7.10;99.90
18797;DHT22;9526;52.612;13.300;2024-02-14T10:02:11;7.10;99.90
18797;DHT22;9526;52.612;13.300;2024-02-14T10:04:35;7.20;99.90
18797;DHT22;9526;52.612;13.300;2024-02-14T10:07:00;7.20;99.90
18797;DHT22;9526;52.612;13.300;2024-02-14T10:09:25;7.20;99.90
18797;DHT22;9526;52.612;13.300;2024-02-14T10:11:51;7.30;99.90
18797;DHT22;9526;52.612;13.300;2024-02-14T10:14:15;7.30;99.90
18797;DHT22;9526;52.612;13.300;2024-02-14T10:16:40;7.40;99.90
18797;DHT22;9526;52.612;13.300;2024-02-14T10:19:04;7.40;99.90
18797;DHT22;9526;52.612;13.300;2024-02-14T10:21:30;7.40;99.90
18797;DHT22;9526;52.612;13.300;2024-02-14T10:23:58;7.40;99.90
18797;DHT22;9526;52.612;13.300;2024-02-14T10:26:23;7.40;99.90
18797;DHT22;9526;52.612;13.300;2024-02-14T10:28:47;7.50;99.90
18797;DHT22;9526;52.612;13.300;2024-02-14T10:31:12;7.50;99.90
18797;DHT22;9526;52.612;13.300;2024-02-14T10:33:38;7.60;99.90
18797;DHT22;9526;52.612;13.300;2024-02-14T10:36:03;7.60;99.90
18797;DHT22;9526;52.612;13.300;2024-02-14T10:38:31;7.70;99.90
18797;DHT22;9526;52.612;13.300;2024-02-14T10:40:55;7.70;99.90
18797;DHT22;9526;52.612;13.300;2024-02-14T10:43:22;7.80;99.90
18797;DHT22;9526;52.612;13.300;2024-02-14T10:45:46;7.80;99.90
18797;DHT22;9526;52.612;13.300;2024-02-14T10:48:12;7.90;99.90
18797;DHT22;9526;52.612;13.300;2024-02-14T10:50:40;7.90;99.90
18797;DHT22;9526;52.612;13.300;2024-02-14T10:53:05;7.90;99.90
18797;DHT22;9526;52.612;13.300;2024-02-14T10:55:31;8.00;99.90
18797;DHT22;9526;52.612;13.300;2024-02-14T10:57:57;8.10;99.90
18797;DHT22;9526;52.612;13.300;2024-02-14T11:00:22;8.30;99.90
18797;DHT22;9526;52.612;13.300;2024-02-14T11:02:47;8.30;99.90
18797;DHT22;9526;52.612;13.300;2024-02-14T11:05:14;8.40;99.90
18797;DHT22;9526;52.612;13.300;2024-02-14T11:07:44;8.50;99.90
18797;DHT22;9526;52.612;13.300;2024-02-14T11:10:13;8.60;99.90
18797;DHT22;9526;52.612;13.300;2024-02-14T11:12:40;8.60;99.90
18797;DHT22;9526;52.612;13.300;2024-02-14T11:15:12;8.50;99.90
18797;DHT22;9526;52.612;13.300;2024-02-14T11:17:42;8.40;99.90
18797;DHT22;9526;52.612;13.300;2024-02-14T11:20:16;8.40;99.90
18797;DHT22;9526;52.612;13.300;2024-02-14T11:22:53;8.40;99.90
18797;DHT22;9526;52.612;13.300;2024-02-14T11:25:22;8.40;99.90
18797;DHT22;9526;52.612;13.300;2024-02-14T11:27:48;8.40;99.90
18797;DHT22;9526;52.612;13.300;2024-02-14T11:30:14;8.40;99.90
18797;DHT22;9526;52.612;13.300;2024-02-14T11:32:39;8.40;99.90
18797;DHT22;9526;52.612;13.300;2024-02-14T11:35:05;8.40;99.90
18797;DHT22;9526;52.612;13.300;2024-02-14T11:37:31;8.50;99.90
18797;DHT22;9526;52.612;13.300;2024-02-14T11:39:57;8.40;99.90
18797;DHT22;9526;52.612;13.300;2024-02-14T11:42:22;8.40;99.90
18797;DHT22;9526;52.612;13.300;2024-02-14T11:44:49;8.40;99.90
18797;DHT22;9526;52.612;13.300;2024-02-14T11:47:14;8.40;99.90
18797;DHT22;9526;52.612;13.300;2024-02-14T11:49:40;8.40;99.90
18797;DHT22;9526;52.612;13.300;2024-02-14T11:52:05;8.40;99.90
18797;DHT22;9526;52.612;13.300;2024-02-14T11:54:34;8.40;99.90
18797;DHT22;9526;52.612;13.300;2024-02-14T11:57:00;8.40;99.90
18797;DHT22;9526;52.612;13.300;2024-02-14T11:59:26;8.30;99.90
18797;DHT22;9526;52.612;13.300;2024-02-14T12:01:51;8.30;99.90
18797;DHT22;9526;52.612;13.300;2024-02-14T12:04:17;8.30;99.90
18797;DHT22;9526;52.612;13.300;2024-02-14T12:06:43;8.30;99.90
18797;DHT22;9526;52.612;13.300;2024-02-14T12:09:08;8.30;99.90
18797;DHT22;9526;52.612;13.300;2024-02-14T12:11:36;8.30;99.90
18797;DHT22;9526;52.612;13.300;2024-02-14T12:14:05;8.30;99.90
18797;DHT22;9526;52.612;13.300;2024-02-14T12:16:33;8.40;99.90
18797;DHT22;9526;52.612;13.300;2024-02-14T12:19:06;8.40;99.90
18797;DHT22;9526;52.612;13.300;2024-02-14T12:21:34;8.50;99.90
18797;DHT22;9526;52.612;13.300;2024-02-14T12:24:00;8.50;99.90
18797;DHT22;9526;52.612;13.300;2024-02-14T12:26:26;8.60;99.90
18797;DHT22;9526;52.612;13.300;2024-02-14T12:28:52;8.50;99.90
18797;DHT22;9526;52.612;13.300;2024-02-14T12:31:24;8.50;99.90
18797;DHT22;9526;52.612;13.300;2024-02-14T12:33:49;8.50;99.90
18797;DHT22;9526;52.612;13.300;2024-02-14T12:36:17;8.60;99.90
18797;DHT22;9526;52.612;13.300;2024-02-14T12:38:42;8.60;99.90
18797;DHT22;9526;52.612;13.300;2024-02-14T12:41:08;8.60;99.90
18797;DHT22;9526;52.612;13.300;2024-02-14T12:43:33;8.60;99.90
18797;DHT22;9526;52.612;13.300;2024-02-14T12:45:59;8.70;99.90
18797;DHT22;9526;52.612;13.300;2024-02-14T12:48:25;8.70;99.90
18797;DHT22;9526;52.612;13.300;2024-02-14T12:50:51;8.80;99.90
18797;DHT22;9526;52.612;13.300;2024-02-14T12:53:16;8.80;99.90
18797;DHT22;9526;52.612;13.300;2024-02-14T12:55:42;8.80;99.90
18797;DHT22;9526;52.612;13.300;2024-02-14T12:58:07;8.80;99.90
18797;DHT22;9526;52.612;13.300;2024-02-14T13:00:32;8.80;99.90
18797;DHT22;9526;52.612;13.300;2024-02-14T13:02:57;8.90;99.90
18797;DHT22;9526;52.612;13.300;2024-02-14T13:05:23;8.80;99.90
18797;DHT22;9526;52.612;13.300;2024-02-14T13:07:48;8.90;99.90
18797;DHT22;9526;52.612;13.300;2024-02-14T13:10:12;8.90;99.90
18797;DHT22;9526;52.612;13.300;2024-02-14T13:12:37;8.90;99.90
18797;DHT22;9526;52.612;13.300;2024-02-14T13:15:01;9.00;99.90
18797;DHT22;9526;52.612;13.300;2024-02-14T13:17:25;9.00;99.90
18797;DHT22;9526;52.612;13.300;2024-02-14T13:19:49;8.90;99.90
18797;DHT22;9526;52.612;13.300;2024-02-14T13:22:19;9.00;99.90
18797;DHT22;9526;52.612;13.300;2024-02-14T13:24:43;9.00;99.90
18797;DHT22;9526;52.612;13.300;2024-02-14T13:27:09;8.90;99.90
18797;DHT22;9526;52.612;13.300;2024-02-14T13:29:33;9.00;99.90
18797;DHT22;9526;52.612;13.300;2024-02-14T13:31:57;9.00;99.90
18797;DHT22;9526;52.612;13.300;2024-02-14T13:34:22;9.00;99.90
18797;DHT22;9526;52.612;13.300;2024-02-14T13:36:46;9.00;99.90
18797;DHT22;9526;52.612;13.300;2024-02-14T13:39:15;9.10;99.90
18797;DHT22;9526;52.612;13.300;2024-02-14T13:41:41;9.10;99.90
18797;DHT22;9526;52.612;13.300;2024-02-14T13:44:07;9.10;99.90
18797;DHT22;9526;52.612;13.300;2024-02-14T13:46:31;9.10;99.90
18797;DHT22;9526;52.612;13.300;2024-02-14T13:48:54;9.10;99.90
18797;DHT22;9526;52.612;13.300;2024-02-14T13:51:18;9.10;99.90
18797;DHT22;9526;52.612;13.300;2024-02-14T13:53:42;9.10;99.90
18797;DHT22;9526;52.612;13.300;2024-02-14T13:56:09;9.10;99.90
18797;DHT22;9526;52.612;13.300;2024-02-14T13:58:33;9.10;99.90
18797;DHT22;9526;52.612;13.300;2024-02-14T14:00:56;9.10;99.90
18797;DHT22;9526;52.612;13.300;2024-02-14T14:03:21;9.10;99.90
18797;DHT22;9526;52.612;13.300;2024-02-14T14:05:45;9.10;99.90
18797;DHT22;9526;52.612;13.300;2024-02-14T14:08:09;9.10;99.90
18797;DHT22;9526;52.612;13.300;2024-02-14T14:10:33;9.20;99.90
18797;DHT22;9526;52.612;13.300;2024-02-14T14:12:58;9.20;99.90
18797;DHT22;9526;52.612;13.300;2024-02-14T14:15:22;9.20;99.90
18797;DHT22;9526;52.612;13.300;2024-02-14T14:17:46;9.30;99.90
18797;DHT22;9526;52.612;13.300;2024-02-14T14:20:11;9.20;99.90
18797;DHT22;9526;52.612;13.300;2024-02-14T14:22:35;9.20;99.90
18797;DHT22;9526;52.612;13.300;2024-02-14T14:24:59;9.20;99.90
18797;DHT22;9526;52.612;13.300;2024-02-14T14:27:24;9.20;99.90
18797;DHT22;9526;52.612;13.300;2024-02-14T14:29:50;9.20;99.90
18797;DHT22;9526;52.612;13.300;2024-02-14T14:32:16;9.20;99.90
18797;DHT22;9526;52.612;13.300;2024-02-14T14:34:40;9.20;99.90
18797;DHT22;9526;52.612;13.300;2024-02-14T14:37:04;9.30;99.90
18797;DHT22;9526;52.612;13.300;2024-02-14T14:39:29;9.30;99.90
18797;DHT22;9526;52.612;13.300;2024-02-14T14:41:53;9.30;99.90
18797;DHT22;9526;52.612;13.300;2024-02-14T14:44:20;9.30;99.90
18797;DHT22;9526;52.612;13.300;2024-02-14T14:46:45;9.30;99.90
18797;DHT22;9526;52.612;13.300;2024-02-14T14:49:09;9.40;99.90
18797;DHT22;9526;52.612;13.300;2024-02-14T14:51:33;9.40;99.90
18797;DHT22;9526;52.612;13.300;2024-02-14T14:53:57;9.40;99.90
18797;DHT22;9526;52.612;13.300;2024-02-14T14:56:21;9.30;99.90
18797;DHT22;9526;52.612;13.300;2024-02-14T14:58:47;9.40;99.90
18797;DHT22;9526;52.612;13.300;2024-02-14T15:01:11;9.40;99.90
18797;DHT22;9526;52.612;13.300;2024-02-14T15:03:37;9.40;99.90
18797;DHT22;9526;52.612;13.300;2024-02-14T15:06:01;9.50;99.90
18797;DHT22;9526;52.612;13.300;2024-02-14T15:08:25;9.50;99.90
18797;DHT22;9526;52.612;13.300;2024-02-14T15:10:50;9.50;99.90
18797;DHT22;9526;52.612;13.300;2024-02-14T15:13:15;9.60;99.90
18797;DHT22;9526;52.612;13.300;2024-02-14T15:15:39;9.60;99.90
18797;DHT22;9526;52.612;13.300;2024-02-14T15:18:02;9.60;99.90
18797;DHT22;9526;52.612;13.300;2024-02-14T15:20:28;9.60;99.90
18797;DHT22;9526;52.612;13.300;2024-02-14T15:22:52;9.60;99.90
18797;DHT22;9526;52.612;13.300;2024-02-14T15:25:16;9.60;99.90
18797;DHT22;9526;52.612;13.300;2024-02-14T15:27:41;9.60;99.90
18797;DHT22;9526;52.612;13.300;2024-02-14T15:30:16;9.60;99.90